Thursday, January 17, 2019, 6:27 AM EST
Back to Local

KGON, Groton/new London Airport

Location: Groton, CT, United States Lat: 41.333
Local Time: 6:27 AM EST (11:27 GMT) Lon: -72.05
Time Zone: US/Eastern Elev: 9 ft

Show me the last for .
Show Decoded

2019-01-17 04:56 METAR KGON 170956Z AUTO 34008KT 10SM CLR M04/M13 A3029 RMK AO2 SLP258 T10391128
                 =
2019-01-17 03:56 METAR KGON 170856Z AUTO 33008KT 10SM CLR M03/M14 A3028 RMK AO2 SLP254 T10331144
                 51027 =
2019-01-17 02:56 METAR KGON 170756Z AUTO 33006KT 10SM CLR M03/M12 A3027 RMK AO2 SLP251 T10281117
                 =
2019-01-17 01:56 METAR KGON 170656Z AUTO 32009KT 10SM CLR M02/M12 A3024 RMK AO2 SLP241 T10221117
                 =
2019-01-17 00:56 METAR KGON 170556Z AUTO 31014KT 10SM CLR M01/M12 A3020 RMK AO2 SLP227 T10111117
                 10033 21011 51027 =
2019-01-16 23:56 METAR KGON 170456Z AUTO 32008KT 10SM CLR M01/M09 A3018 RMK AO2 SLP220 T10061094
                 400331083 =
2019-01-16 22:56 METAR KGON 170356Z AUTO 33010KT 10SM CLR 01/M08 A3015 RMK AO2 SLP211 T00111083 =
2019-01-16 21:56 METAR KGON 170256Z 31010KT 10SM FEW047 SCT060 02/M06 A3012 RMK AO2 SLP200
                 T00221061 53022 =
2019-01-16 20:56 METAR KGON 170156Z 26010KT 10SM OVC060 03/M05 A3008 RMK AO2 SLP186 T00331050 =
2019-01-16 19:56 METAR KGON 170056Z 26007KT 10SM BKN060 02/M06 A3007 RMK AO2 SLP181 T00221056 =
2019-01-16 18:56 METAR KGON 162356Z 26006KT 10SM SCT060 02/M04 A3006 RMK AO2 SLP178 T00221044
                 10033 20017 53020 =
2019-01-16 17:56 METAR KGON 162256Z 25007KT 10SM CLR 02/M06 A3004 RMK AO2 SLP170 T00171056 =
2019-01-16 16:56 METAR KGON 162156Z 25007KT 10SM SCT050 02/M06 A3001 RMK AO2 SLP162 T00221056 =
2019-01-16 15:56 METAR KGON 162056Z 25007KT 10SM BKN045 02/M04 A3000 RMK AO2 SLP158 T00221044
                 53004 =
2019-01-16 14:56 METAR KGON 161956Z 25006KT 10SM SCT046 02/M04 A2999 RMK AO2 SLP156 T00221044 =
2019-01-16 13:56 METAR KGON 161856Z 28010KT 10SM OVC041 03/M05 A2998 RMK AO2 SLP153 T00281050 =
2019-01-16 12:56 METAR KGON 161756Z 28011KT 10SM OVC039 02/M05 A2999 RMK AO2 SLP155 T00221050
                 10022 20011 58016 =
2019-01-16 11:56 METAR KGON 161656Z 26009KT 10SM OVC031 02/M04 A3001 RMK AO2 SLP160 T00171044 =
2019-01-16 10:56 METAR KGON 161556Z 26011KT 10SM OVC030 01/M04 A3003 RMK AO2 SLP169 T00111044 =
2019-01-16 09:56 METAR KGON 161456Z 26010KT 10SM OVC028 01/M04 A3004 RMK AO2 SLP171 T00111044
                 53004 =
2019-01-16 09:06 METAR KGON 161406Z 28011G16KT 10SM BKN027 02/M04 A3003 RMK AO2 T00221044 =
2019-01-16 08:56 METAR KGON 161356Z 26008KT 9SM SCT028 02/M04 A3003 RMK AO2 SLP167 T00221039 =
2019-01-16 07:56 METAR KGON 161256Z 25011KT 10SM CLR 02/M04 A3002 RMK AO2 SLP167 T00171044 =
2019-01-16 06:56 METAR KGON 161156Z 23014KT 10SM FEW075 01/M03 A3003 RMK AO2 SLP167 I6000
                 T00111033 10011 21083 55006 =

Support USWX by starting your Amazon purchase here.